Terminal Aerodrome Forecast
Issued by NWS Pocatello, ID

Home | Current Version | Previous Version | Text Only | Print | Product List | Glossary On
Versions: 1 2 3 4 5 6 7 8 9 10 11 12 13 14 15 16 17
000
FTUS45 KPIH 251737 CCA
TAFPIH
TAF COR
KPIH 251737Z 2518/2618 25010G20KT P6SM SCT035 BKN050 BKN130
     FM252000 24010G20KT P6SM VCTS BKN050CB
     FM252200 24010KT P6SM VCTS SCT060CB
     FM260200 22008KT P6SM VCSH SCT060
     FM260900 18006KT P6SM FEW040=

USA.gov is the U.S. government's official web portal to all federal, state and local government web resources and services.